Time;durP1;ratioP1;P1;durP2;ratioP2;P2;SDS_P1;SDS_P2;PMS_P1;PMS_P2;Temp;Humidity;BMP_temperature;BMP_pressure;BME280_temperature;BME280_humidity;BME280_pressure;Samples;Min_cycle;Max_cycle;Signal;HPM_P1;HPM_P2
2022/04/22 00:01:20;;;;;;;;;10.75;8.00;;;;;18.72;45.99;100078.88;5079626;28;45369;-81
2022/04/22 00:03:46;;;;;;;;;8.50;7.50;;;;;18.75;46.01;100078.84;5078191;27;45268;-82
2022/04/22 00:06:12;;;;;;;;;7.75;7.75;;;;;18.79;46.58;100090.25;5077889;27;45784;-84
2022/04/22 00:08:38;;;;;;;;;9.00;8.00;;;;;18.77;46.74;100087.59;5079057;27;45215;-81
2022/04/22 00:13:48;;;;;;;;;11.75;9.50;;;;;18.68;47.11;100088.47;5078796;28;45358;-84
2022/04/22 00:16:13;;;;;;;;;11.00;10.00;;;;;18.62;47.45;100085.84;5079141;27;45390;-83
2022/04/22 00:18:39;;;;;;;;;10.25;10.25;;;;;18.59;47.94;100093.72;5079033;27;45405;-82
2022/04/22 00:21:06;;;;;;;;;10.25;8.25;;;;;18.46;48.26;100078.88;5079073;27;45560;-82
2022/04/22 00:23:31;;;;;;;;;11.25;10.00;;;;;18.44;48.48;100091.97;5086163;27;46293;-82
2022/04/22 00:26:00;;;;;;;;;8.00;8.00;;;;;18.41;48.88;100091.97;5086934;27;45283;-81
2022/04/22 00:28:25;;;;;;;;;13.00;11.00;;;;;18.39;48.85;100094.59;5079821;27;45342;-82
2022/04/22 00:30:51;;;;;;;;;7.25;7.00;;;;;18.37;48.93;100090.22;5079992;28;45290;-82
2022/04/22 00:33:17;;;;;;;;;9.00;9.00;;;;;18.34;48.91;100079.72;5077574;28;46532;-81
2022/04/22 00:35:44;;;;;;;;;8.75;8.75;;;;;18.25;49.00;100068.38;5077455;28;45295;-81
2022/04/22 00:38:10;;;;;;;;;4.75;4.25;;;;;18.34;49.34;100080.63;5077826;27;45455;-82
2022/04/22 00:40:36;;;;;;;;;8.50;7.00;;;;;18.38;49.43;100081.50;5077949;27;45450;-81
2022/04/22 00:43:24;;;;;;;;;8.25;7.50;;;;;18.32;49.31;100064.00;5077052;27;45363;-82
2022/04/22 00:45:51;;;;;;;;;8.00;8.00;;;;;18.43;49.31;100084.97;5077643;27;45335;-82
2022/04/22 00:48:18;;;;;;;;;8.50;8.50;;;;;18.28;49.71;100058.78;5077305;27;45295;-81
2022/04/22 00:50:45;;;;;;;;;7.50;7.50;;;;;18.34;50.21;100078.00;5077805;27;45636;-81
2022/04/22 00:53:11;;;;;;;;;8.00;7.75;;;;;18.21;50.41;100068.38;5078828;28;45557;-80
2022/04/22 00:55:39;;;;;;;;;6.75;6.50;;;;;18.26;50.43;100084.94;5085779;27;45259;-79
2022/04/22 00:58:05;;;;;;;;;7.75;7.75;;;;;18.23;50.92;100083.22;5076200;28;45335;-81
2022/04/22 01:00:32;;;;;;;;;14.00;10.25;;;;;18.20;50.85;100077.09;5077020;27;45291;-81
2022/04/22 01:02:57;;;;;;;;;8.75;7.00;;;;;18.19;51.24;100081.47;5076736;27;46141;-82
2022/04/22 01:10:55;;;;;;;;;9.75;7.75;;;;;18.09;51.88;100074.44;5081159;28;45453;-81
2022/04/22 01:13:21;;;;;;;;;8.00;7.00;;;;;17.93;52.07;100053.44;5086018;27;46551;-81
2022/04/22 01:15:48;;;;;;;;;7.25;7.00;;;;;17.91;52.44;100052.56;5080767;27;45266;-81
2022/04/22 01:18:17;;;;;;;;;9.25;6.75;;;;;17.92;52.91;100069.16;5077854;28;45427;-82
2022/04/22 01:20:43;;;;;;;;;7.00;6.75;;;;;17.83;52.59;100050.78;5077590;27;45637;-81
2022/04/22 01:23:09;;;;;;;;;8.00;8.00;;;;;17.93;52.74;100063.91;5076488;27;46463;-81
2022/04/22 01:25:35;;;;;;;;;8.75;7.50;;;;;17.75;52.52;100028.06;5076320;27;45877;-81
2022/04/22 01:28:02;;;;;;;;;10.25;8.50;;;;;17.72;53.22;100020.19;5076791;27;45380;-83
2022/04/22 01:30:27;;;;;;;;;7.25;6.50;;;;;17.93;52.61;100061.28;5077181;27;45707;-81
2022/04/22 01:32:56;;;;;;;;;6.50;5.00;;;;;17.92;52.81;100051.69;5076911;28;45853;-82
2022/04/22 01:35:22;;;;;;;;;6.75;6.75;;;;;17.86;53.22;100051.69;5077196;27;45744;-82
2022/04/22 01:37:48;;;;;;;;;7.75;7.75;;;;;17.83;53.23;100051.66;5074876;28;45414;-83
2022/04/22 01:40:15;;;;;;;;;7.75;7.25;;;;;17.81;53.72;100048.16;5076929;27;45997;-80
2022/04/22 01:42:41;;;;;;;;;9.00;8.25;;;;;17.76;53.63;100049.91;5076506;28;45737;-82
2022/04/22 01:45:09;;;;;;;;;9.50;8.00;;;;;17.64;53.77;100033.28;5075662;27;45866;-83
2022/04/22 01:47:35;;;;;;;;;9.25;8.00;;;;;17.69;53.47;100040.28;5076979;27;45397;-82
2022/04/22 01:50:01;;;;;;;;;8.00;6.75;;;;;17.68;53.75;100042.03;5076440;27;45326;-81
2022/04/22 01:52:27;;;;;;;;;8.50;8.00;;;;;17.55;54.06;100027.16;5076371;27;45377;-81
2022/04/22 01:54:54;;;;;;;;;6.75;6.50;;;;;17.62;54.03;100039.38;5076700;27;45432;-82
2022/04/22 01:57:20;;;;;;;;;6.50;6.50;;;;;17.60;54.47;100043.75;5077027;27;45404;-81
2022/04/22 01:59:48;;;;;;;;;7.50;6.50;;;;;17.62;53.80;100042.00;5082752;27;45463;-81
2022/04/22 02:02:15;;;;;;;;;9.50;8.25;;;;;17.60;54.35;100038.53;5084288;27;45377;-82
2022/04/22 02:04:41;;;;;;;;;6.50;6.50;;;;;17.52;54.23;100038.47;5079404;27;45381;-81
2022/04/22 02:07:07;;;;;;;;;8.00;7.50;;;;;17.41;54.44;100030.56;5078158;27;45566;-82
2022/04/22 02:09:32;;;;;;;;;7.00;7.00;;;;;17.31;54.33;100005.25;5082253;27;45496;-80
2022/04/22 02:11:58;;;;;;;;;7.25;7.25;;;;;17.48;54.30;100031.47;5087469;27;45145;-80
2022/04/22 02:14:28;;;;;;;;;7.50;7.50;;;;;17.48;54.50;100031.47;5080324;27;45185;-82
2022/04/22 02:16:53;;;;;;;;;8.75;8.75;;;;;17.38;54.40;100014.00;5077450;27;45448;-80
2022/04/22 02:19:19;;;;;;;;;11.00;8.00;;;;;17.33;54.33;100019.22;5076831;28;45599;-81
2022/04/22 02:21:45;;;;;;;;;6.25;6.25;;;;;17.38;54.62;100032.31;5076345;27;45387;-82
2022/04/22 02:24:11;;;;;;;;;5.50;5.50;;;;;17.17;54.72;99990.34;5076451;27;45726;-81
2022/04/22 02:29:22;;;;;;;;;7.75;7.75;;;;;17.24;55.19;100011.31;5076933;28;45224;-81
2022/04/22 02:31:52;;;;;;;;;7.25;7.25;;;;;17.32;55.36;100020.97;5074586;28;47695;-81
2022/04/22 02:34:19;;;;;;;;;9.25;8.50;;;;;17.25;55.10;100006.09;5075565;27;45419;-81
2022/04/22 02:36:45;;;;;;;;;8.00;8.00;;;;;17.21;55.27;100003.44;5075864;27;45381;-82
2022/04/22 02:39:11;;;;;;;;;9.75;7.50;;;;;17.20;55.48;100005.22;5075839;27;45612;-81
2022/04/22 02:47:06;;;;;;;;;8.50;8.00;;;;;17.24;55.44;100013.94;5079483;28;45181;-81
2022/04/22 02:49:32;;;;;;;;;8.50;7.50;;;;;17.17;55.45;100015.66;5084872;27;45570;-81
2022/04/22 02:51:58;;;;;;;;;8.00;8.00;;;;;17.01;55.43;99991.16;5079442;27;45282;-82
2022/04/22 02:54:23;;;;;;;;;10.50;9.25;;;;;16.95;55.51;99984.16;5077385;27;45452;-81
2022/04/22 02:56:53;;;;;;;;;8.00;8.00;;;;;17.15;55.57;100009.53;5077765;27;45329;-82
2022/04/22 02:59:19;;;;;;;;;10.25;8.00;;;;;17.10;55.84;100006.91;5080093;27;45240;-81
2022/04/22 03:01:45;;;;;;;;;8.50;7.00;;;;;17.15;55.80;100009.53;5080059;27;46329;-80
2022/04/22 03:04:11;;;;;;;;;9.75;8.00;;;;;17.08;55.57;99989.47;5088242;27;45208;-80
2022/04/22 03:06:37;;;;;;;;;8.00;6.75;;;;;17.12;55.86;100006.88;5081645;27;45302;-80
2022/04/22 03:09:04;;;;;;;;;9.00;8.50;;;;;17.04;55.82;100004.25;5079408;27;45234;-81
2022/04/22 03:11:30;;;;;;;;;7.00;7.00;;;;;16.68;56.11;99948.25;5078726;27;46096;-81
2022/04/22 03:13:55;;;;;;;;;10.75;7.25;;;;;17.01;55.89;100002.47;5079136;27;45325;-81
2022/04/22 03:16:25;;;;;;;;;9.50;9.00;;;;;17.02;55.77;100001.63;5079371;27;45316;-81
2022/04/22 03:18:51;;;;;;;;;11.00;6.25;;;;;16.96;56.19;99996.38;5079530;27;45396;-81
2022/04/22 03:21:16;;;;;;;;;8.00;7.50;;;;;16.87;56.10;99988.44;5078290;27;46058;-81
2022/04/22 03:23:42;;;;;;;;;9.75;8.00;;;;;16.91;56.31;99999.78;5078501;27;45249;-81
2022/04/22 03:26:08;;;;;;;;;8.75;8.75;;;;;16.77;56.76;99997.97;5078437;27;45238;-82
2022/04/22 03:28:33;;;;;;;;;10.25;9.00;;;;;16.73;57.17;99984.88;5078990;27;45687;-80
2022/04/22 03:30:59;;;;;;;;;8.50;8.50;;;;;16.71;56.64;99980.50;5078220;27;46645;-80
2022/04/22 03:33:25;;;;;;;;;12.00;10.50;;;;;16.74;57.01;99987.47;5083639;28;45341;-81
2022/04/22 03:35:50;;;;;;;;;12.25;12.25;;;;;16.81;57.18;100002.34;5085256;27;45271;-83
2022/04/22 03:38:18;;;;;;;;;17.75;15.50;;;;;16.62;57.32;99970.00;5086567;27;46167;-82
2022/04/22 03:40:45;;;;;;;;;26.25;23.25;;;;;16.69;57.09;99990.06;5080084;28;45548;-80
2022/04/22 03:43:10;;;;;;;;;28.50;26.00;;;;;16.71;56.87;99996.19;5079532;28;45306;-81
2022/04/22 03:45:36;;;;;;;;;25.50;25.50;;;;;16.68;57.73;99992.69;5078756;27;45305;-81
2022/04/22 03:48:05;;;;;;;;;33.00;30.00;;;;;16.63;56.74;99986.56;5078253;27;45454;-81
2022/04/22 03:50:31;;;;;;;;;37.50;32.00;;;;;16.47;57.60;99967.25;5078034;27;46160;-81
2022/04/22 03:52:57;;;;;;;;;35.25;32.00;;;;;16.54;58.22;99985.63;5077827;27;45408;-82
2022/04/22 03:55:22;;;;;;;;;44.50;37.00;;;;;16.58;57.38;99990.88;5077868;27;45461;-81
2022/04/22 04:00:36;;;;;;;;;51.25;40.75;;;;;16.57;58.17;99987.41;5077798;28;45693;-81
2022/04/22 04:03:02;;;;;;;;;50.50;41.25;;;;;16.53;57.97;99983.84;5077620;27;45400;-81
2022/04/22 04:05:28;;;;;;;;;55.50;43.00;;;;;16.52;57.73;99991.69;5078172;28;45191;-82
2022/04/22 04:07:53;;;;;;;;;54.50;44.25;;;;;16.32;57.97;99966.31;5078976;27;45149;-81
2022/04/22 04:15:59;;;;;;;;;55.75;43.75;;;;;16.28;58.72;99979.34;5077905;27;45299;-82
2022/04/22 04:18:37;;;;;;;;;56.75;44.75;;;;;16.20;58.48;99974.91;5078062;27;45294;-80
2022/04/22 04:23:50;;;;;;;;;49.25;40.75;;;;;16.17;59.28;99981.84;5065997;28;45360;-80
2022/04/22 04:26:17;;;;;;;;;45.50;38.50;;;;;16.13;59.49;99970.50;5063625;28;45329;-80
2022/04/22 04:28:44;;;;;;;;;47.25;40.50;;;;;16.08;59.60;99972.22;5078837;27;45244;-80
2022/04/22 04:31:13;;;;;;;;;47.75;38.75;;;;;16.05;59.66;99966.97;5077933;27;45384;-80
2022/04/22 04:33:40;;;;;;;;;42.75;35.50;;;;;16.03;59.56;99963.44;5078229;27;45848;-80
2022/04/22 04:36:09;;;;;;;;;35.50;31.25;;;;;16.09;59.99;99977.44;5077593;27;45322;-79
2022/04/22 04:38:34;;;;;;;;;45.00;36.75;;;;;16.09;60.31;99979.16;5076515;28;45256;-79
2022/04/22 04:41:00;;;;;;;;;38.75;34.50;;;;;15.90;60.02;99955.50;5077707;27;45353;-82
2022/04/22 04:43:26;;;;;;;;;30.50;28.75;;;;;15.85;60.17;99957.22;5078250;27;45408;-82
2022/04/22 04:45:52;;;;;;;;;40.25;35.00;;;;;15.94;60.50;99977.28;5087880;27;45348;-78
2022/04/22 04:48:18;;;;;;;;;38.00;33.25;;;;;16.01;60.98;99978.22;5082029;28;45429;-79
2022/04/22 04:50:45;;;;;;;;;38.75;33.50;;;;;15.98;60.42;99973.00;5078108;27;46613;-80
2022/04/22 04:53:12;;;;;;;;;37.50;32.00;;;;;16.04;60.72;99976.50;5076940;27;45212;-81
2022/04/22 04:55:38;;;;;;;;;37.50;32.75;;;;;16.08;60.86;99974.81;5077374;28;45184;-83
2022/04/22 04:58:05;;;;;;;;;33.25;29.00;;;;;16.12;60.25;99973.97;5077224;27;45328;-80
2022/04/22 05:00:30;;;;;;;;;31.50;31.00;;;;;16.09;60.68;99971.31;5080143;27;45462;-80
2022/04/22 05:02:56;;;;;;;;;31.50;26.75;;;;;16.12;60.34;99970.50;5082353;27;45367;-80
2022/04/22 05:05:23;;;;;;;;;35.00;29.50;;;;;15.95;60.78;99942.50;5079679;27;45348;-80
2022/04/22 05:07:58;;;;;;;;;32.75;31.50;;;;;16.12;60.86;99965.28;5088732;27;45420;-80
2022/04/22 05:10:31;;;;;;;;;38.25;33.25;;;;;16.04;60.63;99952.16;5090937;27;45452;-82
2022/04/22 05:12:57;;;;;;;;;33.50;32.75;;;;;16.03;61.07;99951.28;5097207;27;45589;-79
2022/04/22 05:15:24;;;;;;;;;34.50;33.00;;;;;16.04;60.63;99952.16;5087987;27;45360;-79
2022/04/22 05:17:51;;;;;;;;;39.00;34.25;;;;;16.09;61.00;99959.16;5090703;27;45333;-80
2022/04/22 05:20:25;;;;;;;;;39.25;33.00;;;;;16.09;61.35;99955.66;5085185;27;45328;-80
2022/04/22 05:22:51;;;;;;;;;37.25;32.25;;;;;16.08;61.06;99946.97;5076821;27;45944;-81
2022/04/22 05:25:17;;;;;;;;;43.25;35.25;;;;;16.03;61.25;99947.78;5076738;27;45231;-80
2022/04/22 05:27:44;;;;;;;;;34.25;31.25;;;;;16.03;61.23;99950.41;5077057;27;45462;-82
2022/04/22 05:32:56;;;;;;;;;50.00;41.50;;;;;15.97;61.68;99951.22;5095826;27;45470;-81
2022/04/22 05:35:22;;;;;;;;;43.00;35.25;;;;;15.93;62.12;99947.72;5077109;27;45276;-83
2022/04/22 05:37:50;;;;;;;;;46.50;36.25;;;;;15.84;61.97;99936.28;5076320;28;45391;-83
2022/04/22 05:40:18;;;;;;;;;45.25;39.25;;;;;15.82;62.02;99928.44;5077510;27;46145;-84
2022/04/22 05:42:45;;;;;;;;;46.00;39.50;;;;;15.99;62.54;99959.94;5095275;27;45417;-82
2022/04/22 05:45:13;;;;;;;;;40.75;35.50;;;;;15.94;62.50;99954.69;5100836;27;45415;-94
2022/04/22 05:47:40;;;;;;;;;47.50;40.00;;;;;15.53;62.38;99902.06;5093790;27;45412;-93
2022/04/22 05:50:08;;;;;;;;;47.75;39.25;;;;;15.78;63.00;99955.34;5087914;27;46191;-90
2022/04/22 05:52:38;;;;;;;;;49.25;40.00;;;;;15.73;63.21;99939.66;5085902;27;45879;-79
2022/04/22 05:55:08;;;;;;;;;54.75;41.50;;;;;15.86;63.28;99960.69;5087442;27;45341;-80
2022/04/22 05:57:34;;;;;;;;;50.50;41.75;;;;;15.88;63.68;99964.19;5087211;27;45568;-79
2022/04/22 06:00:02;;;;;;;;;52.75;41.25;;;;;15.93;63.52;99971.22;5085989;27;45416;-78
2022/04/22 06:02:27;;;;;;;;;51.00;41.75;;;;;15.85;63.64;99957.22;5077338;28;45425;-80
2022/04/22 06:04:53;;;;;;;;;49.75;40.00;;;;;15.93;63.60;99971.22;5078201;27;45354;-77
2022/04/22 06:07:19;;;;;;;;;52.00;42.25;;;;;15.99;63.39;99977.31;5075784;28;45639;-78
2022/04/22 06:12:30;;;;;;;;;50.25;40.75;;;;;15.95;63.73;99968.59;5074199;27;45989;-81
2022/04/22 06:14:59;;;;;;;;;50.00;42.00;;;;;16.05;63.05;99980.00;5076586;27;45427;-79
2022/04/22 06:17:27;;;;;;;;;53.00;41.50;;;;;16.03;63.61;99979.13;5073899;27;45598;-80
2022/04/22 06:19:53;;;;;;;;;45.25;38.25;;;;;16.00;63.46;99955.59;5074481;27;45439;-80
2022/04/22 06:22:20;;;;;;;;;44.50;38.00;;;;;16.04;63.29;99958.22;5076692;27;45447;-78
2022/04/22 06:24:45;;;;;;;;;44.50;36.75;;;;;16.17;63.09;99977.50;5073842;27;45427;-76
2022/04/22 06:27:11;;;;;;;;;42.25;38.00;;;;;16.17;63.30;99963.56;5076321;27;45404;-82
2022/04/22 06:29:38;;;;;;;;;43.00;34.75;;;;;16.09;63.40;99953.03;5077877;27;45570;-88
2022/04/22 06:32:04;;;;;;;;;40.75;33.50;;;;;16.22;62.82;99975.78;5080707;27;45499;-80
2022/04/22 06:34:30;;;;;;;;;37.00;33.00;;;;;16.07;62.84;99944.34;5080836;27;45236;-79
2022/04/22 06:36:56;;;;;;;;;34.00;29.75;;;;;16.24;63.40;99971.47;5078321;27;45543;-80
2022/04/22 06:39:23;;;;;;;;;32.50;29.50;;;;;16.20;63.25;99959.22;5077635;27;45441;-78
2022/04/22 06:47:28;;;;;;;;;27.00;26.25;;;;;16.21;63.88;99960.97;5063430;28;45380;-79
2022/04/22 06:49:54;;;;;;;;;24.50;24.50;;;;;16.22;64.13;99965.34;5086836;28;45307;-79
2022/04/22 06:52:20;;;;;;;;;28.75;25.00;;;;;16.27;64.37;99967.13;5080037;27;45453;-80
2022/04/22 06:54:45;;;;;;;;;32.75;28.00;;;;;16.25;63.96;99951.47;5080167;27;45316;-78
2022/04/22 06:57:11;;;;;;;;;27.00;24.00;;;;;16.34;63.95;99963.69;5095225;27;45646;-80
2022/04/22 06:59:37;;;;;;;;;30.50;27.00;;;;;16.38;63.85;99962.88;5078804;27;45468;-78
2022/04/22 07:02:03;;;;;;;;;27.25;26.00;;;;;16.32;63.71;99948.03;5078674;27;45350;-78
2022/04/22 07:04:29;;;;;;;;;27.25;23.50;;;;;16.27;64.31;99954.94;5079663;27;45267;-81
2022/04/22 07:06:55;;;;;;;;;24.25;22.50;;;;;16.22;64.50;99935.75;5079208;27;45257;-79
2022/04/22 07:09:20;;;;;;;;;23.50;20.50;;;;;16.40;63.96;99964.63;5078153;27;45315;-79
2022/04/22 07:11:50;;;;;;;;;24.00;22.00;;;;;16.35;64.20;99953.28;5078441;27;45250;-78
2022/04/22 07:14:16;;;;;;;;;24.50;22.00;;;;;16.43;64.13;99961.16;5078325;28;45358;-79
2022/04/22 07:16:44;;;;;;;;;22.75;21.00;;;;;16.46;64.37;99955.94;5078853;28;45638;-79
2022/04/22 07:19:10;;;;;;;;;21.00;20.00;;;;;16.47;64.38;99949.88;5078648;27;45333;-78
2022/04/22 07:21:36;;;;;;;;;20.25;19.00;;;;;16.37;64.46;99919.31;5078665;27;45802;-80
2022/04/22 07:24:02;;;;;;;;;13.75;13.75;;;;;16.44;64.00;99925.47;5079301;28;45584;-79
2022/04/22 07:26:29;;;;;;;;;12.75;12.75;;;;;16.50;64.49;99936.81;5078881;27;45555;-77
2022/04/22 07:28:58;;;;;;;;;15.75;15.25;;;;;16.59;64.63;99953.41;5078506;28;45785;-76
2022/04/22 07:31:28;;;;;;;;;14.50;13.25;;;;;16.63;64.07;99953.44;5081995;27;45754;-80
2022/04/22 07:33:54;;;;;;;;;15.25;12.75;;;;;16.68;63.62;99950.84;5078519;27;45425;-77
2022/04/22 07:36:20;;;;;;;;;15.75;14.75;;;;;16.69;63.92;99944.78;5082638;27;45658;-79
2022/04/22 07:38:45;;;;;;;;;15.25;14.50;;;;;16.72;63.50;99939.56;5085157;28;45451;-80
2022/04/22 07:41:16;;;;;;;;;16.25;14.00;;;;;16.80;63.85;99955.28;5083003;27;45268;-84
2022/04/22 07:46:47;;;;;;;;;13.75;12.50;;;;;16.82;62.63;99946.59;5057715;28;45356;-84
2022/04/22 07:49:13;;;;;;;;;14.00;14.00;;;;;16.83;62.68;99947.44;5056461;28;45367;-79
2022/04/22 07:51:40;;;;;;;;;17.00;14.50;;;;;16.84;62.24;99946.59;5066322;27;45558;-81
2022/04/22 07:54:07;;;;;;;;;15.25;13.00;;;;;16.63;62.55;99906.41;5077792;27;45385;-80
2022/04/22 07:56:33;;;;;;;;;15.00;15.00;;;;;16.84;62.47;99938.75;5078645;27;45434;-82
2022/04/22 07:58:59;;;;;;;;;19.00;17.25;;;;;16.84;62.23;99937.03;5078274;27;45337;-80
2022/04/22 08:01:25;;;;;;;;;13.00;12.75;;;;;16.83;62.10;99945.72;5078013;27;45339;-83
2022/04/22 08:03:58;;;;;;;;;12.25;12.25;;;;;16.85;61.92;99946.59;5077766;28;45436;-85
2022/04/22 08:06:24;;;;;;;;;15.25;13.00;;;;;16.87;61.71;99944.84;5075986;27;45262;-87
2022/04/22 08:08:50;;;;;;;;;12.00;12.00;;;;;16.77;61.66;99923.91;5070900;28;46966;-79
2022/04/22 08:11:16;;;;;;;;;19.00;17.75;;;;;16.93;61.60;99941.41;5078831;28;45886;-83
2022/04/22 08:13:41;;;;;;;;;12.75;12.25;;;;;16.83;61.45;99929.16;5079000;27;45437;-81
2022/04/22 08:16:07;;;;;;;;;14.00;13.75;;;;;17.01;61.22;99946.72;5079236;27;45330;-80
2022/04/22 08:18:33;;;;;;;;;14.75;13.25;;;;;17.01;60.92;99946.72;5078143;27;45543;-79
2022/04/22 08:20:58;;;;;;;;;15.75;14.00;;;;;17.08;61.35;99950.22;5078249;27;45332;-82
2022/04/22 08:23:24;;;;;;;;;15.00;12.75;;;;;17.06;60.84;99936.25;5078005;27;45369;-82
2022/04/22 08:25:50;;;;;;;;;15.00;13.00;;;;;17.09;60.79;99931.06;5080033;27;45398;-79
2022/04/22 08:28:16;;;;;;;;;14.50;12.25;;;;;17.09;60.53;99929.28;5083996;27;45487;-81
2022/04/22 08:30:41;;;;;;;;;15.00;14.00;;;;;17.09;60.40;99917.97;5081917;27;45388;-80
2022/04/22 08:33:07;;;;;;;;;12.25;12.00;;;;;17.21;59.99;99931.09;5079187;27;45279;-81
2022/04/22 08:35:36;;;;;;;;;12.00;11.50;;;;;16.94;59.94;99880.44;5079041;27;45370;-80
2022/04/22 08:38:03;;;;;;;;;12.50;12.00;;;;;17.21;59.63;99917.13;5077421;27;46198;-77
2022/04/22 08:40:30;;;;;;;;;16.25;13.75;;;;;17.31;59.80;99927.66;5078565;27;45417;-81
2022/04/22 08:43:00;;;;;;;;;15.00;13.75;;;;;17.32;59.43;99921.53;5077833;27;45502;-82
2022/04/22 08:45:26;;;;;;;;;13.50;11.50;;;;;17.39;59.41;99921.53;5078213;27;45547;-82
2022/04/22 08:50:40;;;;;;;;;13.00;13.00;;;;;17.43;59.30;99912.84;5077584;28;45390;-79
2022/04/22 08:53:08;;;;;;;;;14.00;12.75;;;;;17.38;58.66;99898.88;5076907;28;45327;-82
2022/04/22 08:55:34;;;;;;;;;13.50;12.00;;;;;17.46;58.82;99910.22;5077571;27;45537;-79
2022/04/22 08:58:03;;;;;;;;;9.00;9.00;;;;;17.48;58.26;99906.75;5077007;27;46063;-83
2022/04/22 09:00:33;;;;;;;;;14.00;11.25;;;;;17.49;56.93;99907.63;5077241;27;45312;-78
2022/04/22 09:02:59;;;;;;;;;9.75;8.25;;;;;17.53;56.88;99909.38;5077107;27;45329;-82
2022/04/22 09:05:26;;;;;;;;;13.00;13.00;;;;;17.59;56.71;99909.38;5076872;27;45600;-79
2022/04/22 09:07:53;;;;;;;;;13.00;13.00;;;;;17.57;56.29;99897.16;5076784;27;46446;-84
2022/04/22 09:10:19;;;;;;;;;11.75;11.00;;;;;17.67;55.74;99909.38;5077022;27;45279;-81
2022/04/22 09:12:53;;;;;;;;;10.75;9.75;;;;;17.73;56.30;99913.75;5077132;27;45476;-82
2022/04/22 09:15:23;;;;;;;;;8.25;7.50;;;;;17.77;55.72;99900.66;5076834;27;45372;-79
2022/04/22 09:17:49;;;;;;;;;9.25;9.25;;;;;17.76;55.44;99904.16;5084303;27;45264;-80
2022/04/22 09:20:15;;;;;;;;;9.25;7.50;;;;;17.71;54.16;99887.56;5083205;27;45294;-79
2022/04/22 09:22:44;;;;;;;;;7.50;7.50;;;;;17.84;54.52;99909.41;5078646;27;45453;-79
2022/04/22 09:25:10;;;;;;;;;9.00;7.25;;;;;17.86;54.83;99896.31;5075796;27;45308;-80
2022/04/22 09:27:38;;;;;;;;;10.75;9.50;;;;;17.83;54.72;99891.06;5076507;27;45509;-77
2022/04/22 09:30:07;;;;;;;;;10.25;7.75;;;;;17.91;54.52;99903.28;5077255;28;45384;-83
2022/04/22 09:32:37;;;;;;;;;8.75;7.75;;;;;17.94;54.09;99900.69;5077780;27;45481;-77
2022/04/22 09:35:17;;;;;;;;;8.00;7.75;;;;;17.94;54.54;99889.31;5076445;27;45339;-76
2022/04/22 09:43:42;;;;;;;;;7.75;7.75;;;;;18.01;53.26;99883.25;5077321;28;45556;-84
2022/04/22 09:46:22;;;;;;;;;8.25;8.25;;;;;18.01;53.60;99880.63;5077099;27;45361;-83
2022/04/22 09:48:48;;;;;;;;;9.25;9.25;;;;;18.10;52.93;99892.81;5076784;27;45354;-85
2022/04/22 09:51:27;;;;;;;;;11.75;11.00;;;;;18.10;53.38;99884.97;5077880;27;45271;-79
2022/04/22 09:54:05;;;;;;;;;12.25;7.75;;;;;18.10;52.95;99880.63;5086508;27;45281;-79
2022/04/22 09:56:34;;;;;;;;;9.50;9.00;;;;;18.16;53.03;99884.97;5088304;27;45314;-82
2022/04/22 09:59:22;;;;;;;;;9.75;6.75;;;;;18.21;52.66;99883.19;5081935;27;45250;-83
2022/04/22 10:01:49;;;;;;;;;7.00;7.00;;;;;18.21;51.07;99877.97;5076321;27;45330;-79
2022/04/22 10:04:17;;;;;;;;;6.75;6.75;;;;;18.25;50.26;99884.94;5076153;27;45512;-79
2022/04/22 10:06:45;;;;;;;;;7.00;6.00;;;;;18.23;49.88;99862.25;5079811;27;45364;-83
2022/04/22 10:09:11;;;;;;;;;6.75;6.75;;;;;18.28;49.94;99865.72;5087406;27;45340;-81
2022/04/22 10:11:40;;;;;;;;;8.25;7.50;;;;;18.31;49.93;99860.50;5085944;27;45516;-82
2022/04/22 10:14:11;;;;;;;;;6.50;6.50;;;;;18.28;49.95;99847.38;5080991;27;45398;-82
2022/04/22 10:16:38;;;;;;;;;10.00;8.00;;;;;18.34;49.84;99856.97;5080494;27;45358;-82
2022/04/22 10:19:05;;;;;;;;;7.75;7.00;;;;;18.42;49.17;99870.94;5079571;28;46005;-77
2022/04/22 10:21:32;;;;;;;;;8.00;7.00;;;;;18.44;48.69;99863.94;5079768;27;45847;-78
2022/04/22 10:23:58;;;;;;;;;7.50;7.25;;;;;18.46;49.30;99858.72;5079312;27;45706;-78
2022/04/22 10:26:28;;;;;;;;;8.25;6.75;;;;;18.46;49.43;99843.00;5079869;27;45643;-81
2022/04/22 10:28:55;;;;;;;;;7.75;6.00;;;;;18.53;49.31;99850.81;5079538;27;46031;-81
2022/04/22 10:31:23;;;;;;;;;9.00;6.00;;;;;18.56;48.56;99850.81;5079047;27;45296;-78
2022/04/22 10:33:49;;;;;;;;;7.50;7.50;;;;;18.59;48.17;99836.78;5079870;27;45459;-79
2022/04/22 10:36:20;;;;;;;;;6.50;5.00;;;;;18.62;47.83;99835.94;5079296;27;45569;-79
2022/04/22 10:38:49;;;;;;;;;7.50;6.75;;;;;18.61;48.90;99834.19;5079082;28;45397;-78
2022/04/22 10:41:20;;;;;;;;;6.00;5.50;;;;;18.54;48.27;99809.75;5079060;27;45248;-79
2022/04/22 10:49:15;;;;;;;;;6.75;6.75;;;;;18.78;47.82;99849.84;5078722;28;45387;-80
2022/04/22 10:52:09;;;;;;;;;7.50;5.75;;;;;18.74;47.96;99832.38;5079113;27;45860;-78
2022/04/22 10:54:52;;;;;;;;;8.00;6.25;;;;;18.87;48.01;99848.03;5080541;27;45377;-79
2022/04/22 10:57:23;;;;;;;;;7.00;7.00;;;;;18.94;48.06;99840.19;5079893;28;45503;-80
2022/04/22 11:00:12;;;;;;;;;6.25;5.00;;;;;18.88;46.81;99822.69;5083138;27;45340;-81
2022/04/22 11:02:42;;;;;;;;;6.25;6.25;;;;;18.94;47.22;99829.69;5078687;27;45474;-80
2022/04/22 11:05:19;;;;;;;;;6.00;5.50;;;;;19.00;46.51;99827.91;5081756;27;45301;-79
2022/04/22 11:07:53;;;;;;;;;5.75;4.50;;;;;18.99;46.83;99815.69;5085100;27;45283;-80
2022/04/22 11:10:49;;;;;;;;;7.00;5.75;;;;;19.06;46.10;99824.34;5087308;27;45306;-79
2022/04/22 11:13:33;;;;;;;;;6.00;5.50;;;;;19.08;47.00;99825.22;5084456;27;45397;-83
2022/04/22 11:16:15;;;;;;;;;7.00;5.25;;;;;19.16;46.49;99827.81;5081131;27;45342;-82
2022/04/22 11:18:43;;;;;;;;;6.50;6.50;;;;;19.20;46.47;99828.66;5078019;27;45449;-82
2022/04/22 11:21:19;;;;;;;;;8.25;5.00;;;;;19.23;45.99;99828.63;5078119;27;45471;-81
2022/04/22 11:23:45;;;;;;;;;4.25;3.00;;;;;19.25;45.53;99819.88;5078773;27;45422;-81
2022/04/22 11:26:15;;;;;;;;;7.25;6.75;;;;;19.28;46.04;99819.84;5079436;27;45252;-84
2022/04/22 11:28:44;;;;;;;;;7.50;7.50;;;;;19.31;46.04;99819.84;5080398;27;45545;-81
2022/04/22 11:31:12;;;;;;;;;7.00;5.00;;;;;19.34;46.31;99811.94;5078657;27;46240;-84
2022/04/22 11:33:40;;;;;;;;;7.50;7.50;;;;;19.39;45.96;99811.88;5078584;27;45827;-80
2022/04/22 11:36:06;;;;;;;;;6.00;6.00;;;;;19.43;45.35;99808.38;5078460;27;45387;-80
2022/04/22 11:38:33;;;;;;;;;6.25;6.25;;;;;19.46;45.47;99810.09;5077944;28;45336;-79
2022/04/22 11:40:59;;;;;;;;;5.25;5.25;;;;;19.49;45.14;99812.69;5079009;27;45437;-80
2022/04/22 11:43:28;;;;;;;;;6.25;6.25;;;;;19.53;45.46;99818.78;5078907;27;45416;-75
2022/04/22 11:45:53;;;;;;;;;5.50;5.50;;;;;19.48;45.71;99792.56;5080160;27;45254;-83
2022/04/22 11:48:25;;;;;;;;;5.75;5.00;;;;;19.61;44.64;99798.59;5078974;27;45551;-81
2022/04/22 11:50:53;;;;;;;;;4.75;4.75;;;;;19.61;44.55;99799.47;5080148;27;45353;-80
2022/04/22 11:53:26;;;;;;;;;6.00;4.00;;;;;19.70;44.41;99806.41;5092690;27;45326;-78
2022/04/22 11:55:52;;;;;;;;;6.75;6.75;;;;;19.75;44.01;99809.00;5084691;28;45181;-78
2022/04/22 11:58:29;;;;;;;;;7.00;7.00;;;;;19.77;43.62;99797.59;5081066;27;45438;-78
2022/04/22 12:06:25;;;;;;;;;4.00;4.00;;;;;19.93;43.41;99800.97;5078948;27;45432;-85
2022/04/22 12:08:55;;;;;;;;;5.25;5.25;;;;;19.95;43.49;99788.69;5079233;27;45340;-79
2022/04/22 12:11:23;;;;;;;;;5.00;5.00;;;;;20.04;43.67;99785.06;5077885;27;46143;-77
2022/04/22 12:13:49;;;;;;;;;4.25;4.25;;;;;20.03;43.14;99775.44;5078397;28;45763;-79
2022/04/22 12:16:19;;;;;;;;;4.75;4.75;;;;;20.09;42.63;99782.38;5078901;27;45271;-82
2022/04/22 12:18:49;;;;;;;;;5.00;3.00;;;;;20.19;42.83;99778.78;5080495;27;45319;-79
2022/04/22 12:21:19;;;;;;;;;5.00;5.00;;;;;20.23;42.38;99777.84;5083574;27;45334;-79
2022/04/22 12:23:47;;;;;;;;;7.00;5.00;;;;;20.31;42.71;99775.16;5084745;27;45239;-81
2022/04/22 12:26:15;;;;;;;;;7.00;4.75;;;;;20.37;42.71;99787.34;5082625;27;45370;-79
2022/04/22 12:29:05;;;;;;;;;4.50;4.00;;;;;20.45;42.15;99784.63;5079023;27;45387;-82